sensor_id;sensor_type;location;lat;lon;timestamp;temperature;humidity
15107;DHT22;7654;45.308;-75.096;2024-02-14T00:01:39;0.10;99.90
15107;DHT22;7654;45.308;-75.096;2024-02-14T00:04:11;0.00;99.90
15107;DHT22;7654;45.308;-75.096;2024-02-14T00:06:43;-0.10;99.90
15107;DHT22;7654;45.308;-75.096;2024-02-14T00:09:14;-0.30;99.90
15107;DHT22;7654;45.308;-75.096;2024-02-14T00:11:46;-0.50;99.90
15107;DHT22;7654;45.308;-75.096;2024-02-14T00:14:17;-0.60;99.90
15107;DHT22;7654;45.308;-75.096;2024-02-14T00:16:48;-0.60;99.90
15107;DHT22;7654;45.308;-75.096;2024-02-14T00:19:19;-0.70;99.90
15107;DHT22;7654;45.308;-75.096;2024-02-14T00:21:49;-0.70;99.90
15107;DHT22;7654;45.308;-75.096;2024-02-14T00:24:20;-0.80;99.90
15107;DHT22;7654;45.308;-75.096;2024-02-14T00:26:52;-1.00;99.90
15107;DHT22;7654;45.308;-75.096;2024-02-14T00:29:25;-1.10;99.90
15107;DHT22;7654;45.308;-75.096;2024-02-14T00:31:56;-1.30;99.90
15107;DHT22;7654;45.308;-75.096;2024-02-14T00:34:27;-1.40;99.90
15107;DHT22;7654;45.308;-75.096;2024-02-14T00:36:58;-1.50;99.90
15107;DHT22;7654;45.308;-75.096;2024-02-14T00:39:30;-1.60;99.90
15107;DHT22;7654;45.308;-75.096;2024-02-14T00:42:04;-1.60;99.90
15107;DHT22;7654;45.308;-75.096;2024-02-14T00:44:35;-1.70;99.90
15107;DHT22;7654;45.308;-75.096;2024-02-14T00:47:06;-1.80;99.90
15107;DHT22;7654;45.308;-75.096;2024-02-14T00:49:37;-1.80;99.90
15107;DHT22;7654;45.308;-75.096;2024-02-14T00:52:10;-1.90;99.90
15107;DHT22;7654;45.308;-75.096;2024-02-14T00:54:42;-1.90;99.90
15107;DHT22;7654;45.308;-75.096;2024-02-14T00:57:15;-2.10;99.90
15107;DHT22;7654;45.308;-75.096;2024-02-14T00:59:47;-2.10;99.90
15107;DHT22;7654;45.308;-75.096;2024-02-14T01:02:21;-2.20;99.90
15107;DHT22;7654;45.308;-75.096;2024-02-14T01:04:52;-2.30;99.90
15107;DHT22;7654;45.308;-75.096;2024-02-14T01:07:23;-2.40;99.90
15107;DHT22;7654;45.308;-75.096;2024-02-14T01:09:54;-2.40;99.90
15107;DHT22;7654;45.308;-75.096;2024-02-14T01:12:28;-2.40;99.90
15107;DHT22;7654;45.308;-75.096;2024-02-14T01:15:00;-2.50;99.90
15107;DHT22;7654;45.308;-75.096;2024-02-14T01:17:32;-2.50;99.90
15107;DHT22;7654;45.308;-75.096;2024-02-14T01:20:08;-2.60;99.90
15107;DHT22;7654;45.308;-75.096;2024-02-14T01:22:39;-2.60;99.90
15107;DHT22;7654;45.308;-75.096;2024-02-14T01:25:10;-2.70;99.90
15107;DHT22;7654;45.308;-75.096;2024-02-14T01:27:42;-2.80;99.90
15107;DHT22;7654;45.308;-75.096;2024-02-14T01:30:14;-2.90;99.90
15107;DHT22;7654;45.308;-75.096;2024-02-14T01:32:45;-2.90;99.90
15107;DHT22;7654;45.308;-75.096;2024-02-14T01:35:15;-2.90;99.90
15107;DHT22;7654;45.308;-75.096;2024-02-14T01:37:47;-3.00;99.90
15107;DHT22;7654;45.308;-75.096;2024-02-14T01:40:17;-3.00;99.90
15107;DHT22;7654;45.308;-75.096;2024-02-14T01:42:50;-3.00;99.90
15107;DHT22;7654;45.308;-75.096;2024-02-14T01:45:21;-3.00;99.90
15107;DHT22;7654;45.308;-75.096;2024-02-14T01:47:52;-3.00;99.90
15107;DHT22;7654;45.308;-75.096;2024-02-14T01:50:29;-3.00;99.90
15107;DHT22;7654;45.308;-75.096;2024-02-14T01:53:00;-3.00;99.90
15107;DHT22;7654;45.308;-75.096;2024-02-14T01:55:33;-3.00;99.90
15107;DHT22;7654;45.308;-75.096;2024-02-14T01:58:06;-3.00;99.90
15107;DHT22;7654;45.308;-75.096;2024-02-14T02:00:37;-3.10;99.90
15107;DHT22;7654;45.308;-75.096;2024-02-14T02:03:10;-3.10;99.90
15107;DHT22;7654;45.308;-75.096;2024-02-14T02:05:41;-3.20;99.90
15107;DHT22;7654;45.308;-75.096;2024-02-14T02:08:12;-3.20;99.90
15107;DHT22;7654;45.308;-75.096;2024-02-14T02:10:43;-3.20;99.90
15107;DHT22;7654;45.308;-75.096;2024-02-14T02:13:15;-3.20;99.90
15107;DHT22;7654;45.308;-75.096;2024-02-14T02:15:45;-3.30;99.90
15107;DHT22;7654;45.308;-75.096;2024-02-14T02:18:15;-3.20;99.90
15107;DHT22;7654;45.308;-75.096;2024-02-14T02:20:46;-3.30;99.90
15107;DHT22;7654;45.308;-75.096;2024-02-14T02:23:18;-3.30;99.90
15107;DHT22;7654;45.308;-75.096;2024-02-14T02:25:50;-3.40;99.90
15107;DHT22;7654;45.308;-75.096;2024-02-14T02:28:20;-3.40;99.90
15107;DHT22;7654;45.308;-75.096;2024-02-14T02:30:52;-3.50;99.90
15107;DHT22;7654;45.308;-75.096;2024-02-14T02:33:24;-3.50;99.90
15107;DHT22;7654;45.308;-75.096;2024-02-14T02:35:54;-3.50;99.90
15107;DHT22;7654;45.308;-75.096;2024-02-14T02:38:27;-3.60;99.90
15107;DHT22;7654;45.308;-75.096;2024-02-14T02:40:58;-3.70;99.90
15107;DHT22;7654;45.308;-75.096;2024-02-14T02:43:29;-3.70;99.90
15107;DHT22;7654;45.308;-75.096;2024-02-14T02:46:00;-3.80;99.90
15107;DHT22;7654;45.308;-75.096;2024-02-14T02:48:31;-3.80;99.90
15107;DHT22;7654;45.308;-75.096;2024-02-14T02:51:01;-3.80;99.90
15107;DHT22;7654;45.308;-75.096;2024-02-14T02:53:34;-3.90;99.90
15107;DHT22;7654;45.308;-75.096;2024-02-14T02:56:06;-3.90;99.90
15107;DHT22;7654;45.308;-75.096;2024-02-14T02:58:38;-3.90;99.90
15107;DHT22;7654;45.308;-75.096;2024-02-14T03:01:08;-3.90;99.90
15107;DHT22;7654;45.308;-75.096;2024-02-14T03:03:40;-3.90;99.90
15107;DHT22;7654;45.308;-75.096;2024-02-14T03:06:12;-4.00;99.90
15107;DHT22;7654;45.308;-75.096;2024-02-14T03:08:44;-4.00;99.90
15107;DHT22;7654;45.308;-75.096;2024-02-14T03:11:17;-4.00;99.90
15107;DHT22;7654;45.308;-75.096;2024-02-14T03:13:48;-4.10;99.90
15107;DHT22;7654;45.308;-75.096;2024-02-14T03:16:19;-4.10;99.90
15107;DHT22;7654;45.308;-75.096;2024-02-14T03:18:49;-4.20;99.90
15107;DHT22;7654;45.308;-75.096;2024-02-14T03:21:22;-4.30;99.90
15107;DHT22;7654;45.308;-75.096;2024-02-14T03:23:54;-4.30;99.90
15107;DHT22;7654;45.308;-75.096;2024-02-14T03:26:25;-4.40;99.90
15107;DHT22;7654;45.308;-75.096;2024-02-14T03:28:56;-4.40;99.90
15107;DHT22;7654;45.308;-75.096;2024-02-14T03:31:27;-4.50;99.90
15107;DHT22;7654;45.308;-75.096;2024-02-14T03:33:57;-4.50;99.90
15107;DHT22;7654;45.308;-75.096;2024-02-14T03:36:28;-4.50;99.90
15107;DHT22;7654;45.308;-75.096;2024-02-14T03:39:00;-4.50;99.90
15107;DHT22;7654;45.308;-75.096;2024-02-14T03:41:33;-4.50;99.90
15107;DHT22;7654;45.308;-75.096;2024-02-14T03:44:05;-4.50;99.90
15107;DHT22;7654;45.308;-75.096;2024-02-14T03:46:37;-4.60;99.90
15107;DHT22;7654;45.308;-75.096;2024-02-14T03:49:08;-4.60;99.90
15107;DHT22;7654;45.308;-75.096;2024-02-14T03:51:38;-4.70;99.90
15107;DHT22;7654;45.308;-75.096;2024-02-14T03:54:11;-4.70;99.90
15107;DHT22;7654;45.308;-75.096;2024-02-14T03:56:44;-4.80;99.90
15107;DHT22;7654;45.308;-75.096;2024-02-14T03:59:15;-4.90;99.90
15107;DHT22;7654;45.308;-75.096;2024-02-14T04:01:49;-5.00;99.90
15107;DHT22;7654;45.308;-75.096;2024-02-14T04:04:22;-5.10;99.90
15107;DHT22;7654;45.308;-75.096;2024-02-14T04:06:53;-5.10;99.90
15107;DHT22;7654;45.308;-75.096;2024-02-14T04:09:25;-5.10;99.90
15107;DHT22;7654;45.308;-75.096;2024-02-14T04:11:56;-5.20;99.90
15107;DHT22;7654;45.308;-75.096;2024-02-14T04:14:26;-5.20;99.90
15107;DHT22;7654;45.308;-75.096;2024-02-14T04:16:56;-5.20;99.90
15107;DHT22;7654;45.308;-75.096;2024-02-14T04:19:27;-5.30;99.90
15107;DHT22;7654;45.308;-75.096;2024-02-14T04:21:57;-5.30;99.90
15107;DHT22;7654;45.308;-75.096;2024-02-14T04:24:29;-5.30;99.90
15107;DHT22;7654;45.308;-75.096;2024-02-14T04:27:03;-5.40;99.90
15107;DHT22;7654;45.308;-75.096;2024-02-14T04:29:34;-5.40;99.90
15107;DHT22;7654;45.308;-75.096;2024-02-14T04:32:05;-5.40;99.90
15107;DHT22;7654;45.308;-75.096;2024-02-14T04:34:35;-5.50;99.90
15107;DHT22;7654;45.308;-75.096;2024-02-14T04:37:08;-5.50;99.90
15107;DHT22;7654;45.308;-75.096;2024-02-14T04:39:43;-5.60;99.90
15107;DHT22;7654;45.308;-75.096;2024-02-14T04:42:14;-5.60;99.90
15107;DHT22;7654;45.308;-75.096;2024-02-14T04:44:44;-5.60;99.90
15107;DHT22;7654;45.308;-75.096;2024-02-14T04:47:14;-5.70;99.90
15107;DHT22;7654;45.308;-75.096;2024-02-14T04:49:45;-5.70;99.90
15107;DHT22;7654;45.308;-75.096;2024-02-14T04:52:15;-5.70;99.90
15107;DHT22;7654;45.308;-75.096;2024-02-14T04:54:47;-5.80;99.90
15107;DHT22;7654;45.308;-75.096;2024-02-14T04:57:18;-5.90;99.90
15107;DHT22;7654;45.308;-75.096;2024-02-14T04:59:49;-5.90;99.90
15107;DHT22;7654;45.308;-75.096;2024-02-14T05:02:19;-6.00;99.90
15107;DHT22;7654;45.308;-75.096;2024-02-14T05:04:50;-6.10;99.90
15107;DHT22;7654;45.308;-75.096;2024-02-14T05:07:21;-6.20;99.90
15107;DHT22;7654;45.308;-75.096;2024-02-14T05:09:53;-6.30;99.90
15107;DHT22;7654;45.308;-75.096;2024-02-14T05:12:24;-6.50;99.90
15107;DHT22;7654;45.308;-75.096;2024-02-14T05:14:56;-6.60;99.90
15107;DHT22;7654;45.308;-75.096;2024-02-14T05:17:26;-6.60;99.90
15107;DHT22;7654;45.308;-75.096;2024-02-14T05:19:57;-6.70;99.90
15107;DHT22;7654;45.308;-75.096;2024-02-14T05:22:27;-6.80;99.90
15107;DHT22;7654;45.308;-75.096;2024-02-14T05:25:02;-6.80;99.90
15107;DHT22;7654;45.308;-75.096;2024-02-14T05:27:33;-6.80;99.90
15107;DHT22;7654;45.308;-75.096;2024-02-14T05:30:04;-6.80;99.90
15107;DHT22;7654;45.308;-75.096;2024-02-14T05:32:35;-6.80;99.90
15107;DHT22;7654;45.308;-75.096;2024-02-14T05:35:06;-6.80;99.90
15107;DHT22;7654;45.308;-75.096;2024-02-14T05:37:36;-6.80;99.90
15107;DHT22;7654;45.308;-75.096;2024-02-14T05:40:12;-6.90;99.90
15107;DHT22;7654;45.308;-75.096;2024-02-14T05:42:42;-7.00;99.90
15107;DHT22;7654;45.308;-75.096;2024-02-14T05:45:14;-7.10;99.90
15107;DHT22;7654;45.308;-75.096;2024-02-14T05:47:45;-7.20;99.90
15107;DHT22;7654;45.308;-75.096;2024-02-14T05:50:15;-7.20;99.90
15107;DHT22;7654;45.308;-75.096;2024-02-14T05:52:46;-7.30;99.90
15107;DHT22;7654;45.308;-75.096;2024-02-14T05:55:18;-7.30;99.90
15107;DHT22;7654;45.308;-75.096;2024-02-14T05:57:49;-7.40;99.90
15107;DHT22;7654;45.308;-75.096;2024-02-14T06:00:20;-7.40;99.90
15107;DHT22;7654;45.308;-75.096;2024-02-14T06:02:55;-7.50;99.90
15107;DHT22;7654;45.308;-75.096;2024-02-14T06:05:25;-7.60;99.90
15107;DHT22;7654;45.308;-75.096;2024-02-14T06:07:56;-7.70;99.90
15107;DHT22;7654;45.308;-75.096;2024-02-14T06:10:28;-7.80;99.90
15107;DHT22;7654;45.308;-75.096;2024-02-14T06:12:59;-7.90;99.90
15107;DHT22;7654;45.308;-75.096;2024-02-14T06:15:29;-8.10;99.90
15107;DHT22;7654;45.308;-75.096;2024-02-14T06:18:00;-8.10;99.90
15107;DHT22;7654;45.308;-75.096;2024-02-14T06:20:31;-8.20;99.90
15107;DHT22;7654;45.308;-75.096;2024-02-14T06:23:01;-8.20;99.90
15107;DHT22;7654;45.308;-75.096;2024-02-14T06:25:34;-8.20;99.90
15107;DHT22;7654;45.308;-75.096;2024-02-14T06:28:05;-8.30;99.90
15107;DHT22;7654;45.308;-75.096;2024-02-14T06:30:37;-8.30;99.90
15107;DHT22;7654;45.308;-75.096;2024-02-14T06:33:07;-8.30;99.90
15107;DHT22;7654;45.308;-75.096;2024-02-14T06:35:38;-8.20;99.90
15107;DHT22;7654;45.308;-75.096;2024-02-14T06:38:08;-8.30;99.90
15107;DHT22;7654;45.308;-75.096;2024-02-14T06:40:41;-8.20;99.90
15107;DHT22;7654;45.308;-75.096;2024-02-14T06:43:12;-8.30;99.90
15107;DHT22;7654;45.308;-75.096;2024-02-14T06:45:42;-8.30;99.90
15107;DHT22;7654;45.308;-75.096;2024-02-14T06:48:13;-8.30;99.90
15107;DHT22;7654;45.308;-75.096;2024-02-14T06:50:44;-8.30;99.90
15107;DHT22;7654;45.308;-75.096;2024-02-14T06:53:14;-8.30;99.90
15107;DHT22;7654;45.308;-75.096;2024-02-14T06:55:46;-8.30;99.90
15107;DHT22;7654;45.308;-75.096;2024-02-14T06:58:17;-8.30;99.90
15107;DHT22;7654;45.308;-75.096;2024-02-14T07:00:47;-8.30;99.90
15107;DHT22;7654;45.308;-75.096;2024-02-14T07:03:18;-8.30;99.90
15107;DHT22;7654;45.308;-75.096;2024-02-14T07:05:48;-8.20;99.90
15107;DHT22;7654;45.308;-75.096;2024-02-14T07:08:19;-8.30;99.90
15107;DHT22;7654;45.308;-75.096;2024-02-14T07:10:51;-8.30;99.90
15107;DHT22;7654;45.308;-75.096;2024-02-14T07:13:22;-8.20;99.90
15107;DHT22;7654;45.308;-75.096;2024-02-14T07:15:53;-8.20;99.90
15107;DHT22;7654;45.308;-75.096;2024-02-14T07:18:23;-8.20;99.90
15107;DHT22;7654;45.308;-75.096;2024-02-14T07:20:54;-8.20;99.90
15107;DHT22;7654;45.308;-75.096;2024-02-14T07:23:24;-8.20;99.90
15107;DHT22;7654;45.308;-75.096;2024-02-14T07:25:57;-8.20;99.90
15107;DHT22;7654;45.308;-75.096;2024-02-14T07:28:27;-8.20;99.90
15107;DHT22;7654;45.308;-75.096;2024-02-14T07:30:58;-8.30;99.90
15107;DHT22;7654;45.308;-75.096;2024-02-14T07:33:29;-8.20;99.90
15107;DHT22;7654;45.308;-75.096;2024-02-14T07:36:00;-8.20;99.90
15107;DHT22;7654;45.308;-75.096;2024-02-14T07:38:31;-8.20;99.90
15107;DHT22;7654;45.308;-75.096;2024-02-14T07:41:05;-8.20;99.90
15107;DHT22;7654;45.308;-75.096;2024-02-14T07:43:35;-8.30;99.90
15107;DHT22;7654;45.308;-75.096;2024-02-14T07:46:06;-8.30;99.90
15107;DHT22;7654;45.308;-75.096;2024-02-14T07:48:36;-8.30;99.90
15107;DHT22;7654;45.308;-75.096;2024-02-14T07:51:08;-8.30;99.90
15107;DHT22;7654;45.308;-75.096;2024-02-14T07:53:38;-8.30;99.90
15107;DHT22;7654;45.308;-75.096;2024-02-14T07:56:10;-8.40;99.90
15107;DHT22;7654;45.308;-75.096;2024-02-14T07:58:41;-8.30;99.90
15107;DHT22;7654;45.308;-75.096;2024-02-14T08:01:12;-8.30;99.90
15107;DHT22;7654;45.308;-75.096;2024-02-14T08:03:42;-8.40;99.90
15107;DHT22;7654;45.308;-75.096;2024-02-14T08:06:14;-8.40;99.90
15107;DHT22;7654;45.308;-75.096;2024-02-14T08:08:45;-8.40;99.90
15107;DHT22;7654;45.308;-75.096;2024-02-14T08:11:19;-8.40;99.90
15107;DHT22;7654;45.308;-75.096;2024-02-14T08:13:49;-8.30;99.90
15107;DHT22;7654;45.308;-75.096;2024-02-14T08:16:20;-8.40;99.90
15107;DHT22;7654;45.308;-75.096;2024-02-14T08:18:50;-8.40;99.90
15107;DHT22;7654;45.308;-75.096;2024-02-14T08:21:28;-8.40;99.90
15107;DHT22;7654;45.308;-75.096;2024-02-14T08:23:59;-8.40;99.90
15107;DHT22;7654;45.308;-75.096;2024-02-14T08:26:32;-8.50;99.90
15107;DHT22;7654;45.308;-75.096;2024-02-14T08:29:03;-8.50;99.90
15107;DHT22;7654;45.308;-75.096;2024-02-14T08:31:33;-8.50;99.90
15107;DHT22;7654;45.308;-75.096;2024-02-14T08:34:04;-8.50;99.90
15107;DHT22;7654;45.308;-75.096;2024-02-14T08:36:34;-8.50;99.90
15107;DHT22;7654;45.308;-75.096;2024-02-14T08:39:09;-8.50;99.90
15107;DHT22;7654;45.308;-75.096;2024-02-14T08:41:43;-8.50;99.90
15107;DHT22;7654;45.308;-75.096;2024-02-14T08:44:15;-8.50;99.90
15107;DHT22;7654;45.308;-75.096;2024-02-14T08:46:46;-8.50;99.90
15107;DHT22;7654;45.308;-75.096;2024-02-14T08:49:18;-8.50;99.90
15107;DHT22;7654;45.308;-75.096;2024-02-14T08:51:49;-8.50;99.90
15107;DHT22;7654;45.308;-75.096;2024-02-14T08:54:19;-8.50;99.90
15107;DHT22;7654;45.308;-75.096;2024-02-14T08:56:53;-8.50;99.90
15107;DHT22;7654;45.308;-75.096;2024-02-14T08:59:27;-8.50;99.90
15107;DHT22;7654;45.308;-75.096;2024-02-14T09:01:57;-8.40;99.90
15107;DHT22;7654;45.308;-75.096;2024-02-14T09:04:28;-8.40;99.90
15107;DHT22;7654;45.308;-75.096;2024-02-14T09:06:58;-8.40;99.90
15107;DHT22;7654;45.308;-75.096;2024-02-14T09:09:29;-8.50;99.90
15107;DHT22;7654;45.308;-75.096;2024-02-14T09:12:01;-8.40;99.90
15107;DHT22;7654;45.308;-75.096;2024-02-14T09:14:32;-8.50;99.90
15107;DHT22;7654;45.308;-75.096;2024-02-14T09:17:02;-8.50;99.90
15107;DHT22;7654;45.308;-75.096;2024-02-14T09:19:32;-8.50;99.90
15107;DHT22;7654;45.308;-75.096;2024-02-14T09:22:03;-8.50;99.90
15107;DHT22;7654;45.308;-75.096;2024-02-14T09:24:34;-8.60;99.90
15107;DHT22;7654;45.308;-75.096;2024-02-14T09:27:07;-8.60;99.90
15107;DHT22;7654;45.308;-75.096;2024-02-14T09:29:39;-8.60;99.90
15107;DHT22;7654;45.308;-75.096;2024-02-14T09:32:12;-8.60;99.90
15107;DHT22;7654;45.308;-75.096;2024-02-14T09:34:43;-8.60;99.90
15107;DHT22;7654;45.308;-75.096;2024-02-14T09:37:14;-8.60;99.90
15107;DHT22;7654;45.308;-75.096;2024-02-14T09:39:45;-8.70;99.90
15107;DHT22;7654;45.308;-75.096;2024-02-14T09:42:22;-8.70;99.90
15107;DHT22;7654;45.308;-75.096;2024-02-14T09:44:58;-8.70;99.90
15107;DHT22;7654;45.308;-75.096;2024-02-14T09:47:31;-8.70;99.90
15107;DHT22;7654;45.308;-75.096;2024-02-14T09:50:03;-8.70;99.90
15107;DHT22;7654;45.308;-75.096;2024-02-14T09:52:35;-8.70;99.90
15107;DHT22;7654;45.308;-75.096;2024-02-14T09:55:07;-8.70;99.90
15107;DHT22;7654;45.308;-75.096;2024-02-14T09:57:42;-8.80;99.90
15107;DHT22;7654;45.308;-75.096;2024-02-14T10:00:13;-8.70;99.90
15107;DHT22;7654;45.308;-75.096;2024-02-14T10:02:44;-8.80;99.90
15107;DHT22;7654;45.308;-75.096;2024-02-14T10:05:15;-8.80;99.90
15107;DHT22;7654;45.308;-75.096;2024-02-14T10:07:45;-8.70;99.90
15107;DHT22;7654;45.308;-75.096;2024-02-14T10:10:16;-8.70;99.90
15107;DHT22;7654;45.308;-75.096;2024-02-14T10:12:48;-8.70;99.90
15107;DHT22;7654;45.308;-75.096;2024-02-14T10:15:19;-8.70;99.90
15107;DHT22;7654;45.308;-75.096;2024-02-14T10:17:49;-8.70;99.90
15107;DHT22;7654;45.308;-75.096;2024-02-14T10:20:20;-8.70;99.90
15107;DHT22;7654;45.308;-75.096;2024-02-14T10:22:51;-8.70;99.90
15107;DHT22;7654;45.308;-75.096;2024-02-14T10:25:21;-8.70;99.90
15107;DHT22;7654;45.308;-75.096;2024-02-14T10:27:55;-8.70;99.90
15107;DHT22;7654;45.308;-75.096;2024-02-14T10:30:26;-8.70;99.90
15107;DHT22;7654;45.308;-75.096;2024-02-14T10:32:58;-8.70;99.90
15107;DHT22;7654;45.308;-75.096;2024-02-14T10:35:44;-8.70;99.90
15107;DHT22;7654;45.308;-75.096;2024-02-14T10:38:15;-8.70;99.90
15107;DHT22;7654;45.308;-75.096;2024-02-14T10:40:47;-8.70;99.90
15107;DHT22;7654;45.308;-75.096;2024-02-14T10:43:19;-8.70;99.90
15107;DHT22;7654;45.308;-75.096;2024-02-14T10:45:50;-8.70;99.90
15107;DHT22;7654;45.308;-75.096;2024-02-14T10:48:23;-8.70;99.90
15107;DHT22;7654;45.308;-75.096;2024-02-14T10:50:58;-8.70;99.90
15107;DHT22;7654;45.308;-75.096;2024-02-14T10:53:32;-8.70;99.90
15107;DHT22;7654;45.308;-75.096;2024-02-14T10:56:04;-8.70;99.90
15107;DHT22;7654;45.308;-75.096;2024-02-14T10:58:37;-8.80;99.90
15107;DHT22;7654;45.308;-75.096;2024-02-14T11:01:08;-8.80;99.90
15107;DHT22;7654;45.308;-75.096;2024-02-14T11:03:38;-8.80;99.90
15107;DHT22;7654;45.308;-75.096;2024-02-14T11:06:09;-8.80;99.90
15107;DHT22;7654;45.308;-75.096;2024-02-14T11:08:56;-8.90;99.90
15107;DHT22;7654;45.308;-75.096;2024-02-14T11:11:29;-8.90;99.90
15107;DHT22;7654;45.308;-75.096;2024-02-14T11:14:01;-9.00;99.90
15107;DHT22;7654;45.308;-75.096;2024-02-14T11:16:32;-9.10;99.90
15107;DHT22;7654;45.308;-75.096;2024-02-14T11:19:08;-9.10;99.90
15107;DHT22;7654;45.308;-75.096;2024-02-14T11:21:41;-9.20;99.90
15107;DHT22;7654;45.308;-75.096;2024-02-14T11:24:14;-9.20;99.90
15107;DHT22;7654;45.308;-75.096;2024-02-14T11:26:49;-9.20;99.90
15107;DHT22;7654;45.308;-75.096;2024-02-14T11:29:29;-9.20;99.90
15107;DHT22;7654;45.308;-75.096;2024-02-14T11:32:17;-9.20;99.90
15107;DHT22;7654;45.308;-75.096;2024-02-14T11:34:54;-9.20;99.90
15107;DHT22;7654;45.308;-75.096;2024-02-14T11:37:29;-9.20;99.90
15107;DHT22;7654;45.308;-75.096;2024-02-14T11:40:00;-9.20;99.90
15107;DHT22;7654;45.308;-75.096;2024-02-14T11:42:30;-9.10;99.90
15107;DHT22;7654;45.308;-75.096;2024-02-14T11:45:01;-9.10;99.90
15107;DHT22;7654;45.308;-75.096;2024-02-14T11:47:34;-9.00;99.90
15107;DHT22;7654;45.308;-75.096;2024-02-14T11:50:07;-9.00;99.90
15107;DHT22;7654;45.308;-75.096;2024-02-14T11:52:38;-9.00;99.90
15107;DHT22;7654;45.308;-75.096;2024-02-14T11:55:09;-9.00;99.90
15107;DHT22;7654;45.308;-75.096;2024-02-14T11:57:41;-8.90;99.90
15107;DHT22;7654;45.308;-75.096;2024-02-14T12:00:12;-8.90;99.90
15107;DHT22;7654;45.308;-75.096;2024-02-14T12:02:44;-8.90;99.90
15107;DHT22;7654;45.308;-75.096;2024-02-14T12:05:15;-8.90;99.90
15107;DHT22;7654;45.308;-75.096;2024-02-14T12:07:46;-8.80;99.90
15107;DHT22;7654;45.308;-75.096;2024-02-14T12:10:17;-8.90;99.90
15107;DHT22;7654;45.308;-75.096;2024-02-14T12:12:47;-8.80;99.90
15107;DHT22;7654;45.308;-75.096;2024-02-14T12:15:19;-8.80;99.90
15107;DHT22;7654;45.308;-75.096;2024-02-14T12:17:51;-8.80;99.90
15107;DHT22;7654;45.308;-75.096;2024-02-14T12:20:23;-8.80;99.90
15107;DHT22;7654;45.308;-75.096;2024-02-14T12:22:53;-8.80;99.90
15107;DHT22;7654;45.308;-75.096;2024-02-14T12:25:24;-8.90;99.90
15107;DHT22;7654;45.308;-75.096;2024-02-14T12:27:57;-8.90;99.90
15107;DHT22;7654;45.308;-75.096;2024-02-14T12:30:42;-8.90;99.90
15107;DHT22;7654;45.308;-75.096;2024-02-14T12:33:17;-8.90;99.90
15107;DHT22;7654;45.308;-75.096;2024-02-14T12:35:49;-8.90;99.90
15107;DHT22;7654;45.308;-75.096;2024-02-14T12:38:20;-8.90;99.90
15107;DHT22;7654;45.308;-75.096;2024-02-14T12:40:51;-8.90;99.90
15107;DHT22;7654;45.308;-75.096;2024-02-14T12:43:22;-8.80;99.90
15107;DHT22;7654;45.308;-75.096;2024-02-14T12:45:53;-8.80;99.90
15107;DHT22;7654;45.308;-75.096;2024-02-14T12:48:25;-8.80;99.90
15107;DHT22;7654;45.308;-75.096;2024-02-14T12:50:56;-8.70;99.90
15107;DHT22;7654;45.308;-75.096;2024-02-14T12:53:27;-8.60;99.90
15107;DHT22;7654;45.308;-75.096;2024-02-14T12:55:57;-8.60;99.90
15107;DHT22;7654;45.308;-75.096;2024-02-14T12:58:28;-8.50;99.90
15107;DHT22;7654;45.308;-75.096;2024-02-14T13:01:00;-8.40;99.90
15107;DHT22;7654;45.308;-75.096;2024-02-14T13:03:36;-8.30;99.90
15107;DHT22;7654;45.308;-75.096;2024-02-14T13:06:06;-8.20;99.90
15107;DHT22;7654;45.308;-75.096;2024-02-14T13:08:37;-8.10;99.90
15107;DHT22;7654;45.308;-75.096;2024-02-14T13:11:08;-8.10;99.90
15107;DHT22;7654;45.308;-75.096;2024-02-14T13:13:39;-8.00;99.90
15107;DHT22;7654;45.308;-75.096;2024-02-14T13:16:10;-7.90;99.90
15107;DHT22;7654;45.308;-75.096;2024-02-14T13:18:42;-7.90;99.90
15107;DHT22;7654;45.308;-75.096;2024-02-14T13:21:13;-7.80;99.90
15107;DHT22;7654;45.308;-75.096;2024-02-14T13:23:44;-7.70;99.90
15107;DHT22;7654;45.308;-75.096;2024-02-14T13:26:19;-7.70;99.90
15107;DHT22;7654;45.308;-75.096;2024-02-14T13:28:53;-7.80;99.90
15107;DHT22;7654;45.308;-75.096;2024-02-14T13:31:26;-7.70;99.90
15107;DHT22;7654;45.308;-75.096;2024-02-14T13:33:58;-7.80;99.90
15107;DHT22;7654;45.308;-75.096;2024-02-14T13:36:30;-7.80;99.90
15107;DHT22;7654;45.308;-75.096;2024-02-14T13:39:01;-7.80;99.90
15107;DHT22;7654;45.308;-75.096;2024-02-14T13:41:32;-7.70;99.90
15107;DHT22;7654;45.308;-75.096;2024-02-14T13:44:04;-7.70;99.90
15107;DHT22;7654;45.308;-75.096;2024-02-14T13:46:35;-7.60;99.90
15107;DHT22;7654;45.308;-75.096;2024-02-14T13:49:07;-7.50;99.90
15107;DHT22;7654;45.308;-75.096;2024-02-14T13:51:41;-7.50;99.90
15107;DHT22;7654;45.308;-75.096;2024-02-14T13:54:12;-7.50;99.90
15107;DHT22;7654;45.308;-75.096;2024-02-14T13:56:43;-7.50;99.90
15107;DHT22;7654;45.308;-75.096;2024-02-14T13:59:14;-7.60;99.90
15107;DHT22;7654;45.308;-75.096;2024-02-14T14:01:46;-7.60;99.90
15107;DHT22;7654;45.308;-75.096;2024-02-14T14:04:18;-7.50;99.90
15107;DHT22;7654;45.308;-75.096;2024-02-14T14:06:49;-7.40;99.90
15107;DHT22;7654;45.308;-75.096;2024-02-14T14:09:20;-7.50;99.90
15107;DHT22;7654;45.308;-75.096;2024-02-14T14:11:50;-7.40;99.90
15107;DHT22;7654;45.308;-75.096;2024-02-14T14:14:21;-7.50;99.90
15107;DHT22;7654;45.308;-75.096;2024-02-14T14:16:55;-7.50;99.90
15107;DHT22;7654;45.308;-75.096;2024-02-14T14:19:29;-7.60;99.90
15107;DHT22;7654;45.308;-75.096;2024-02-14T14:22:00;-7.80;99.90
15107;DHT22;7654;45.308;-75.096;2024-02-14T14:24:31;-8.00;99.90
15107;DHT22;7654;45.308;-75.096;2024-02-14T14:27:01;-8.10;99.90
15107;DHT22;7654;45.308;-75.096;2024-02-14T14:29:32;-7.90;99.90
15107;DHT22;7654;45.308;-75.096;2024-02-14T14:32:03;-7.90;99.90
15107;DHT22;7654;45.308;-75.096;2024-02-14T14:34:37;-7.80;99.90
15107;DHT22;7654;45.308;-75.096;2024-02-14T14:37:08;-7.60;99.90
15107;DHT22;7654;45.308;-75.096;2024-02-14T14:39:38;-7.50;99.90
15107;DHT22;7654;45.308;-75.096;2024-02-14T14:42:10;-7.30;99.90
15107;DHT22;7654;45.308;-75.096;2024-02-14T14:45:06;-7.00;99.90
15107;DHT22;7654;45.308;-75.096;2024-02-14T14:47:36;-7.00;99.90
15107;DHT22;7654;45.308;-75.096;2024-02-14T14:50:08;-7.20;99.90
15107;DHT22;7654;45.308;-75.096;2024-02-14T14:52:41;-7.30;99.90
15107;DHT22;7654;45.308;-75.096;2024-02-14T14:55:12;-7.30;99.90
15107;DHT22;7654;45.308;-75.096;2024-02-14T14:57:42;-7.20;99.90
15107;DHT22;7654;45.308;-75.096;2024-02-14T15:00:14;-7.00;99.90
15107;DHT22;7654;45.308;-75.096;2024-02-14T15:02:45;-7.10;99.90
15107;DHT22;7654;45.308;-75.096;2024-02-14T15:05:17;-7.50;99.90
15107;DHT22;7654;45.308;-75.096;2024-02-14T15:07:48;-7.60;99.90
15107;DHT22;7654;45.308;-75.096;2024-02-14T15:10:18;-7.70;99.90
15107;DHT22;7654;45.308;-75.096;2024-02-14T15:12:50;-7.80;99.90
15107;DHT22;7654;45.308;-75.096;2024-02-14T15:15:20;-7.60;99.90
15107;DHT22;7654;45.308;-75.096;2024-02-14T15:17:52;-7.50;99.90
15107;DHT22;7654;45.308;-75.096;2024-02-14T15:20:24;-7.50;99.90
15107;DHT22;7654;45.308;-75.096;2024-02-14T15:22:54;-7.50;99.90
15107;DHT22;7654;45.308;-75.096;2024-02-14T15:25:25;-7.60;99.90
15107;DHT22;7654;45.308;-75.096;2024-02-14T15:27:55;-7.80;99.90
15107;DHT22;7654;45.308;-75.096;2024-02-14T15:30:27;-7.80;99.90
15107;DHT22;7654;45.308;-75.096;2024-02-14T15:33:14;-7.70;99.90
15107;DHT22;7654;45.308;-75.096;2024-02-14T15:35:56;-7.80;99.90
15107;DHT22;7654;45.308;-75.096;2024-02-14T15:38:28;-7.60;99.90
15107;DHT22;7654;45.308;-75.096;2024-02-14T15:40:58;-7.60;99.90
15107;DHT22;7654;45.308;-75.096;2024-02-14T15:43:29;-7.50;99.90